createdAt,value
2018-12-27T00:01:05.572Z,41.20
2018-12-27T00:06:10.928Z,42.47
2018-12-27T00:11:16.439Z,43.70
2018-12-27T00:16:21.892Z,39.80
2018-12-27T00:21:28.186Z,40.10
2018-12-27T00:26:33.629Z,39.60
2018-12-27T00:31:39.796Z,40.43
2018-12-27T00:36:45.132Z,46.80
2018-12-27T00:41:50.748Z,44.77
2018-12-27T00:46:55.981Z,50.47
2018-12-27T00:52:01.287Z,46.03
2018-12-27T00:57:06.851Z,43.07
2018-12-27T01:02:12.233Z,41.83
2018-12-27T01:07:17.463Z,42.73
2018-12-27T01:12:22.805Z,40.27
2018-12-27T01:17:28.175Z,44.73
2018-12-27T01:22:33.538Z,44.97
2018-12-27T01:27:44.009Z,43.90
2018-12-27T01:32:49.269Z,45.70
2018-12-27T01:37:54.630Z,39.73
2018-12-27T01:43:00.263Z,43.20
2018-12-27T01:48:05.657Z,40.67
2018-12-27T01:53:11.148Z,34.27
2018-12-27T01:58:16.430Z,36.27
2018-12-27T02:03:26.414Z,36.83
2018-12-27T02:08:29.192Z,40.53
2018-12-27T02:13:34.724Z,45.90
2018-12-27T02:18:41.880Z,41.93
2018-12-27T02:23:48.952Z,43.10
2018-12-27T02:28:56.230Z,40.30
2018-12-27T02:34:01.715Z,44.80
2018-12-27T02:44:45.543Z,40.07
2018-12-27T02:50:12.512Z,38.93
2018-12-27T02:55:18.464Z,38.87
2018-12-27T03:00:24.142Z,39.33
2018-12-27T03:05:32.853Z,43.87
2018-12-27T03:10:40.589Z,45.53
2018-12-27T03:15:47.053Z,43.03
2018-12-27T03:20:52.811Z,44.87
2018-12-27T03:25:58.089Z,47.90
2018-12-27T03:31:03.357Z,40.47
2018-12-27T03:36:08.886Z,47.13
2018-12-27T03:41:14.249Z,45.10
2018-12-27T03:46:19.438Z,43.60
2018-12-27T03:51:24.688Z,44.70
2018-12-27T03:56:29.914Z,43.37
2018-12-27T04:01:38.155Z,40.13
2018-12-27T04:06:43.765Z,35.27
2018-12-27T04:11:49.040Z,37.87
2018-12-27T04:16:56.852Z,47.40
2018-12-27T04:22:04.734Z,47.03
2018-12-27T04:27:12.469Z,39.00
2018-12-27T04:32:18.807Z,43.03
2018-12-27T04:37:23.854Z,42.20
2018-12-27T04:42:29.004Z,48.93
2018-12-27T04:47:39.148Z,38.43
2018-12-27T04:52:44.698Z,35.33
2018-12-27T04:57:49.729Z,35.60
2018-12-27T05:02:54.811Z,35.77
2018-12-27T05:08:00.587Z,40.93
2018-12-27T05:13:05.993Z,40.37
2018-12-27T05:18:12.264Z,38.93
2018-12-27T05:23:17.339Z,40.60
2018-12-27T05:28:22.438Z,44.33
2018-12-27T05:33:27.819Z,43.63
2018-12-27T05:38:38.020Z,42.33
2018-12-27T05:43:44.404Z,44.70
2018-12-27T05:48:49.452Z,47.43
2018-12-27T05:53:54.653Z,48.83
2018-12-27T05:59:04.907Z,53.53
2018-12-27T06:04:10.376Z,45.77
2018-12-27T06:09:15.549Z,45.70
2018-12-27T06:14:20.535Z,46.33
2018-12-27T06:25:09.139Z,46.10
2018-12-27T06:30:14.118Z,43.97
2018-12-27T06:35:19.470Z,44.10
2018-12-27T06:40:25.182Z,48.80
2018-12-27T06:45:30.818Z,39.60
2018-12-27T06:50:36.193Z,40.70
2018-12-27T06:55:43.581Z,42.30
2018-12-27T07:00:48.754Z,38.60
2018-12-27T07:05:53.815Z,38.90
2018-12-27T07:11:00.027Z,43.50
2018-12-27T07:16:05.275Z,43.53
2018-12-27T07:21:10.811Z,51.20
2018-12-27T07:26:15.939Z,45.80
2018-12-27T07:31:21.359Z,41.37
2018-12-27T07:36:26.328Z,44.33
2018-12-27T07:41:35.983Z,37.50
2018-12-27T07:46:41.046Z,41.87
2018-12-27T07:51:47.953Z,42.53
2018-12-27T07:56:53.175Z,42.13
2018-12-27T08:01:58.997Z,43.20
2018-12-27T08:07:04.595Z,41.10
2018-12-27T08:12:09.860Z,39.87
2018-12-27T08:17:17.621Z,39.23
2018-12-27T08:22:22.974Z,40.10
2018-12-27T08:27:28.161Z,39.90
2018-12-27T08:32:35.118Z,37.37
2018-12-27T08:37:40.280Z,43.83
2018-12-27T08:42:45.338Z,36.87
2018-12-27T08:47:52.089Z,38.97
2018-12-27T08:52:57.444Z,39.00
2018-12-27T08:58:02.946Z,37.67
2018-12-27T09:03:08.420Z,35.57
2018-12-27T09:08:14.656Z,38.03
2018-12-27T09:13:19.950Z,34.73
2018-12-27T09:18:25.402Z,31.23
2018-12-27T09:23:32.394Z,39.87
2018-12-27T09:28:38.356Z,40.07
2018-12-27T09:33:43.473Z,38.23
2018-12-27T09:38:48.897Z,36.17
2018-12-27T09:43:54.367Z,31.67
2018-12-27T09:48:59.441Z,31.30
2018-12-27T09:54:04.707Z,31.80
2018-12-27T09:59:10.324Z,24.13
2018-12-27T10:04:15.988Z,24.13
2018-12-27T10:09:39.296Z,24.83
2018-12-27T10:14:44.678Z,27.10
2018-12-27T10:19:49.869Z,27.93
2018-12-27T10:24:55.334Z,27.90
2018-12-27T10:30:24.282Z,27.63
2018-12-27T10:35:30.068Z,26.03
2018-12-27T10:40:35.534Z,26.10
2018-12-27T10:45:40.889Z,33.70
2018-12-27T10:50:47.179Z,26.53
2018-12-27T10:55:53.975Z,26.33
2018-12-27T11:00:59.176Z,26.67
2018-12-27T11:06:04.444Z,27.00
2018-12-27T11:11:09.599Z,23.97
2018-12-27T11:16:19.953Z,19.87
2018-12-27T11:21:25.084Z,19.90
2018-12-27T11:26:32.724Z,21.57
2018-12-27T11:31:37.850Z,22.67
2018-12-27T11:36:43.460Z,23.43
2018-12-27T11:41:49.460Z,21.70
2018-12-27T11:46:54.700Z,21.87
2018-12-27T11:51:59.929Z,22.97
2018-12-27T11:57:05.051Z,22.73
2018-12-27T12:02:10.316Z,25.53
2018-12-27T12:07:16.470Z,20.20
2018-12-27T12:12:21.646Z,19.00
2018-12-27T12:17:28.318Z,18.37
2018-12-27T12:22:33.947Z,25.83
2018-12-27T12:27:39.125Z,23.23
2018-12-27T12:32:44.228Z,18.97
2018-12-27T12:37:51.354Z,21.97
2018-12-27T12:42:56.458Z,19.73
2018-12-27T12:48:01.974Z,21.27
2018-12-27T12:53:07.042Z,22.03
2018-12-27T12:58:12.546Z,21.37
2018-12-27T13:03:17.770Z,21.00
2018-12-27T13:08:24.084Z,22.07
2018-12-27T13:13:29.392Z,22.60
2018-12-27T13:18:34.530Z,20.67
2018-12-27T13:23:39.621Z,19.10
2018-12-27T13:28:47.988Z,18.77
2018-12-27T13:33:54.131Z,24.23
2018-12-27T13:39:21.182Z,21.93
2018-12-27T13:44:26.616Z,19.87
2018-12-27T13:49:32.569Z,20.70
2018-12-27T13:54:42.857Z,22.90
2018-12-27T13:59:49.121Z,19.90
2018-12-27T14:04:55.520Z,19.83
2018-12-27T14:10:03.495Z,20.47
2018-12-27T14:15:09.197Z,20.07
2018-12-27T14:20:14.404Z,22.23
2018-12-27T14:25:20.000Z,26.97
2018-12-27T14:30:25.593Z,23.90
2018-12-27T14:35:31.078Z,23.87
2018-12-27T14:40:36.360Z,28.23
2018-12-27T14:45:43.144Z,26.80
2018-12-27T14:50:48.863Z,25.23
2018-12-27T14:55:56.890Z,26.63
2018-12-27T15:01:02.526Z,29.50
2018-12-27T15:06:09.392Z,29.70
2018-12-27T15:11:16.460Z,26.63
2018-12-27T15:16:24.073Z,29.90
2018-12-27T15:21:29.840Z,31.03
2018-12-27T15:26:35.952Z,31.40
2018-12-27T15:31:41.111Z,30.87
2018-12-27T15:36:46.698Z,29.73
2018-12-27T15:41:51.830Z,31.63
2018-12-27T15:46:56.978Z,30.97
2018-12-27T15:52:02.182Z,31.50
2018-12-27T15:57:12.414Z,31.30
2018-12-27T16:02:17.492Z,30.63
2018-12-27T16:07:22.901Z,30.20
2018-12-27T16:12:28.146Z,26.23
2018-12-27T16:17:34.055Z,29.43
2018-12-27T16:22:39.351Z,31.70
2018-12-27T16:27:47.843Z,34.70
2018-12-27T16:32:54.113Z,29.97
2018-12-27T16:37:59.780Z,34.37
2018-12-27T16:43:05.316Z,33.10
2018-12-27T16:48:27.401Z,37.97
2018-12-27T16:53:35.830Z,38.87
2018-12-27T16:58:47.493Z,36.77
2018-12-27T17:03:52.715Z,39.20
2018-12-27T17:09:05.401Z,36.67
2018-12-27T17:14:15.227Z,36.03
2018-12-27T17:19:21.313Z,35.00
2018-12-27T17:24:26.649Z,33.37
2018-12-27T17:29:32.437Z,33.00
2018-12-27T17:34:37.727Z,38.80
2018-12-27T17:39:48.069Z,30.93
2018-12-27T17:44:54.322Z,32.67
2018-12-27T17:50:05.276Z,32.33
2018-12-27T17:55:11.711Z,33.50
2018-12-27T18:00:18.313Z,31.93
2018-12-27T18:05:23.799Z,35.83
2018-12-27T18:10:31.407Z,32.63
2018-12-27T18:15:37.057Z,38.10
2018-12-27T18:20:42.229Z,40.67
2018-12-27T18:25:47.379Z,36.53
2018-12-27T18:30:53.813Z,38.47
2018-12-27T18:36:02.215Z,38.87
2018-12-27T18:41:10.367Z,36.27
2018-12-27T18:46:18.485Z,34.40
2018-12-27T18:51:23.879Z,39.77
2018-12-27T18:56:29.317Z,37.63
2018-12-27T19:01:36.868Z,39.80
2018-12-27T19:06:45.605Z,40.00
2018-12-27T19:12:26.699Z,37.53
2018-12-27T19:17:52.421Z,34.67
2018-12-27T19:23:23.623Z,36.90
2018-12-27T19:45:30.397Z,30.47
2018-12-27T19:50:39.850Z,33.37
2018-12-27T19:55:47.279Z,39.03
2018-12-27T20:00:55.249Z,42.83
2018-12-27T20:06:04.879Z,39.90
2018-12-27T20:11:13.164Z,38.43
2018-12-27T20:16:23.928Z,37.53
2018-12-27T20:21:55.651Z,32.00
2018-12-27T20:27:03.977Z,33.37
2018-12-27T20:32:17.137Z,33.90
2018-12-27T20:37:33.263Z,38.40
2018-12-27T20:42:42.268Z,40.20
2018-12-27T20:47:59.825Z,38.27
2018-12-27T20:53:06.515Z,36.87
2018-12-27T20:58:11.942Z,38.53
2018-12-27T21:03:19.706Z,38.77
2018-12-27T21:08:32.166Z,39.43
2018-12-27T21:13:37.775Z,45.10
2018-12-27T21:18:44.872Z,41.93
2018-12-27T21:23:55.335Z,41.53
2018-12-27T21:29:06.026Z,40.47
2018-12-27T21:34:15.408Z,38.43
2018-12-27T21:39:23.226Z,37.53
2018-12-27T21:44:30.480Z,38.17
2018-12-27T21:49:42.049Z,36.83
2018-12-27T21:54:56.251Z,37.13
2018-12-27T22:00:05.045Z,37.47
2018-12-27T22:05:13.332Z,36.97
2018-12-27T22:10:19.827Z,40.50
2018-12-27T22:15:26.145Z,36.47
2018-12-27T22:20:34.528Z,34.97
2018-12-27T22:25:45.566Z,38.13
2018-12-27T22:30:52.600Z,39.13
2018-12-27T22:35:58.026Z,37.67
2018-12-27T22:41:03.953Z,40.30
2018-12-27T22:46:10.084Z,39.83
2018-12-27T22:51:15.472Z,39.03
2018-12-27T22:56:21.193Z,38.63
2018-12-27T23:01:26.938Z,40.10
2018-12-27T23:06:33.228Z,37.23
2018-12-27T23:11:38.972Z,37.13
2018-12-27T23:16:45.120Z,36.30
2018-12-27T23:21:52.696Z,35.00
2018-12-27T23:26:57.763Z,36.27
2018-12-27T23:32:04.143Z,37.63
2018-12-27T23:37:15.163Z,34.63
2018-12-27T23:42:20.266Z,35.00
2018-12-27T23:47:27.554Z,34.27
2018-12-27T23:52:32.684Z,34.70
2018-12-27T23:57:39.788Z,30.90
